Time,TemperatureF,DewpointF,PressureIn,WindDirection,WindDirectionDegrees,WindSpeedMPH,WindSpeedGustMPH,Humidity,HourlyPrecipIn,Conditions,Clouds,dailyrainin,SolarRadiationWatts/m^2,SoftwareType,DateUTC
2013-11-18 00:03:00,76.5,72.0,29.92,SE,145,4.0,10.0,87,0.00,,,0.00,0,weatherlink.com 1.10,2013-11-18 10:03:00,
2013-11-18 00:18:00,76.4,73.0,29.91,East,98,4.0,11.0,88,0.00,,,0.00,0,weatherlink.com 1.10,2013-11-18 10:18:00,
2013-11-18 00:33:00,76.4,73.0,29.91,SE,130,6.0,10.0,88,0.00,,,0.00,0,weatherlink.com 1.10,2013-11-18 10:33:00,
2013-11-18 00:48:00,76.2,72.0,29.91,SSE,149,7.0,12.0,87,0.00,,,0.00,0,weatherlink.com 1.10,2013-11-18 10:48:00,
2013-11-18 01:03:00,76.3,72.0,29.91,SE,134,8.0,10.0,87,0.00,,,0.00,0,weatherlink.com 1.10,2013-11-18 11:03:00,
2013-11-18 01:18:00,76.2,72.0,29.91,SE,128,6.0,10.0,87,0.00,,,0.00,0,weatherlink.com 1.10,2013-11-18 11:18:00,
2013-11-18 01:34:00,76.2,72.0,29.91,SE,137,5.0,9.0,87,0.00,,,0.00,0,weatherlink.com 1.10,2013-11-18 11:34:00,
2013-11-18 02:04:00,76.3,73.0,29.90,SE,145,5.0,9.0,88,0.00,,,0.00,0,weatherlink.com 1.10,2013-11-18 12:04:00,
2013-11-18 02:19:00,76.2,72.0,29.90,SE,137,4.0,9.0,87,0.00,,,0.00,0,weatherlink.com 1.10,2013-11-18 12:19:00,
2013-11-18 02:34:00,76.3,73.0,29.89,SE,138,7.0,9.0,88,0.00,,,0.00,0,weatherlink.com 1.10,2013-11-18 12:34:00,
2013-11-18 02:48:00,76.1,72.0,29.89,ESE,114,6.0,9.0,88,0.00,,,0.00,0,weatherlink.com 1.10,2013-11-18 12:48:00,
2013-11-18 03:03:00,76.0,72.0,29.89,SSE,155,3.0,8.0,88,0.00,,,0.00,0,weatherlink.com 1.10,2013-11-18 13:03:00,
2013-11-18 03:18:00,75.8,72.0,29.89,SSW,204,1.0,6.0,88,0.00,,,0.00,0,weatherlink.com 1.10,2013-11-18 13:18:00,
2013-11-18 03:36:00,75.4,72.0,29.90,South,189,0.0,3.0,89,0.00,,,0.00,0,weatherlink.com 1.10,2013-11-18 13:36:00,
2013-11-18 03:49:00,75.2,72.0,29.90,South,190,0.0,2.0,89,0.00,,,0.00,0,weatherlink.com 1.10,2013-11-18 13:49:00,
2013-11-18 04:04:00,74.7,72.0,29.89,South,190,0.0,2.0,90,0.00,,,0.00,0,weatherlink.com 1.10,2013-11-18 14:04:00,
2013-11-18 04:20:00,74.2,72.0,29.89,South,190,1.0,2.0,91,0.00,,,0.00,0,weatherlink.com 1.10,2013-11-18 14:20:00,
2013-11-18 04:35:00,73.8,71.0,29.90,SSW,198,2.0,3.0,91,0.00,,,0.00,0,weatherlink.com 1.10,2013-11-18 14:35:00,
2013-11-18 04:50:00,73.8,71.0,29.90,SW,229,1.0,3.0,92,0.00,,,0.00,0,weatherlink.com 1.10,2013-11-18 14:50:00,
2013-11-18 05:05:00,73.7,71.0,29.90,WSW,253,2.0,5.0,92,0.00,,,0.00,0,weatherlink.com 1.10,2013-11-18 15:05:00,
2013-11-18 05:20:00,73.8,71.0,29.91,WSW,251,2.0,5.0,92,0.00,,,0.00,0,weatherlink.com 1.10,2013-11-18 15:20:00,
2013-11-18 05:36:00,73.8,71.0,29.91,West,263,3.0,6.0,91,0.00,,,0.00,0,weatherlink.com 1.10,2013-11-18 15:36:00,
2013-11-18 05:51:00,73.7,71.0,29.92,West,267,3.0,7.0,91,0.00,,,0.00,0,weatherlink.com 1.10,2013-11-18 15:51:00,
2013-11-18 06:06:00,73.6,71.0,29.92,WSW,250,1.0,6.0,91,0.00,,,0.00,0,weatherlink.com 1.10,2013-11-18 16:06:00,
2013-11-18 06:21:00,73.5,71.0,29.93,WSW,258,1.0,3.0,92,0.00,,,0.00,0,weatherlink.com 1.10,2013-11-18 16:21:00,
2013-11-18 06:36:00,73.3,71.0,29.93,WSW,258,1.0,3.0,92,0.00,,,0.00,0,weatherlink.com 1.10,2013-11-18 16:36:00,
2013-11-18 06:50:00,73.0,71.0,29.94,WSW,258,0.0,2.0,92,0.00,,,0.00,7,weatherlink.com 1.10,2013-11-18 16:50:00,
2013-11-18 07:06:00,72.7,71.0,29.94,WSW,257,0.0,1.0,93,0.00,,,0.00,12,weatherlink.com 1.10,2013-11-18 17:06:00,
2013-11-18 07:20:00,72.8,71.0,29.94,WSW,257,0.0,1.0,93,0.00,,,0.00,19,weatherlink.com 1.10,2013-11-18 17:20:00,
2013-11-18 07:35:00,72.8,71.0,29.94,WSW,257,0.0,0.0,93,0.00,,,0.00,35,weatherlink.com 1.10,2013-11-18 17:35:00,
2013-11-18 07:50:00,73.9,72.0,29.94,WSW,257,0.0,0.0,93,0.00,,,0.00,167,weatherlink.com 1.10,2013-11-18 17:50:00,
2013-11-18 08:05:00,74.3,72.0,29.94,WSW,257,0.0,2.0,92,0.00,,,0.00,70,weatherlink.com 1.10,2013-11-18 18:05:00,
2013-11-18 08:21:00,74.9,72.0,29.95,WSW,247,0.0,2.0,91,0.00,,,0.00,221,weatherlink.com 1.10,2013-11-18 18:21:00,
2013-11-18 08:36:00,76.2,73.0,29.95,SE,124,1.0,3.0,90,0.00,,,0.00,341,weatherlink.com 1.10,2013-11-18 18:36:00,
2013-11-18 08:51:00,77.2,73.0,29.95,SE,124,2.0,3.0,87,0.00,,,0.00,388,weatherlink.com 1.10,2013-11-18 18:51:00,
2013-11-18 09:06:00,77.8,73.0,29.95,East,99,0.0,5.0,86,0.00,,,0.00,380,weatherlink.com 1.10,2013-11-18 19:06:00,
2013-11-18 09:21:00,77.6,74.0,29.95,East,99,1.0,5.0,88,0.00,,,0.00,489,weatherlink.com 1.10,2013-11-18 19:21:00,
2013-11-18 09:37:00,79.1,75.0,29.95,East,90,1.0,7.0,87,0.00,,,0.00,533,weatherlink.com 1.10,2013-11-18 19:37:00,
2013-11-18 09:52:00,79.7,75.0,29.95,SE,131,6.0,9.0,85,0.00,,,0.00,571,weatherlink.com 1.10,2013-11-18 19:52:00,
2013-11-18 10:07:00,80.0,74.0,29.95,SSE,167,5.0,9.0,83,0.00,,,0.00,605,weatherlink.com 1.10,2013-11-18 20:07:00,
2013-11-18 10:22:00,80.4,75.0,29.95,SE,142,8.0,12.0,82,0.00,,,0.00,631,weatherlink.com 1.10,2013-11-18 20:22:00,
2013-11-18 10:37:00,80.6,75.0,29.95,ESE,102,5.0,10.0,83,0.00,,,0.00,656,weatherlink.com 1.10,2013-11-18 20:37:00,
2013-11-18 10:52:00,80.3,75.0,29.95,East,84,4.0,11.0,83,0.00,,,0.00,682,weatherlink.com 1.10,2013-11-18 20:52:00,
2013-11-18 11:06:00,80.0,74.0,29.95,East,80,5.0,11.0,82,0.00,,,0.00,707,weatherlink.com 1.10,2013-11-18 21:06:00,
2013-11-18 11:21:00,79.0,73.0,29.94,East,101,6.0,11.0,82,0.00,,,0.00,127,weatherlink.com 1.10,2013-11-18 21:21:00,
2013-11-18 11:37:00,79.5,74.0,29.93,ESE,114,6.0,10.0,84,0.00,,,0.00,719,weatherlink.com 1.10,2013-11-18 21:37:00,
2013-11-18 11:52:00,80.1,74.0,29.92,SE,124,7.0,11.0,82,0.00,,,0.00,204,weatherlink.com 1.10,2013-11-18 21:52:00,
2013-11-18 12:07:00,79.7,74.0,29.92,SE,136,8.0,11.0,82,0.00,,,0.00,104,weatherlink.com 1.10,2013-11-18 22:07:00,
2013-11-18 12:22:00,80.0,74.0,29.91,East,82,8.0,9.0,82,0.00,,,0.00,111,weatherlink.com 1.10,2013-11-18 22:22:00,
2013-11-18 12:37:00,80.1,74.0,29.91,SE,128,3.0,9.0,81,0.00,,,0.00,132,weatherlink.com 1.10,2013-11-18 22:37:00,
2013-11-18 12:52:00,79.8,74.0,29.90,East,88,7.0,8.0,82,0.00,,,0.00,107,weatherlink.com 1.10,2013-11-18 22:52:00,
2013-11-18 13:07:00,79.9,74.0,29.89,ESE,108,3.0,9.0,81,0.00,,,0.00,104,weatherlink.com 1.10,2013-11-18 23:07:00,
2013-11-18 13:22:00,79.7,74.0,29.88,ENE,71,6.0,8.0,82,0.00,,,0.00,102,weatherlink.com 1.10,2013-11-18 23:22:00,
2013-11-18 13:37:00,79.4,73.0,29.88,East,88,4.0,8.0,81,0.00,,,0.00,107,weatherlink.com 1.10,2013-11-18 23:37:00,
2013-11-18 13:52:00,79.4,73.0,29.87,East,89,6.0,9.0,80,0.00,,,0.00,102,weatherlink.com 1.10,2013-11-18 23:52:00,
2013-11-18 14:08:00,79.1,73.0,29.87,East,98,5.0,8.0,81,0.00,,,0.00,81,weatherlink.com 1.10,2013-11-19 00:08:00,
2013-11-18 14:22:00,78.9,73.0,29.86,East,88,4.0,7.0,82,0.00,,,0.00,105,weatherlink.com 1.10,2013-11-19 00:22:00,
2013-11-18 14:38:00,78.9,73.0,29.87,ESE,114,5.0,6.0,81,0.00,,,0.00,76,weatherlink.com 1.10,2013-11-19 00:38:00,
2013-11-18 14:53:00,78.8,73.0,29.87,ESE,114,3.0,6.0,81,0.00,,,0.00,72,weatherlink.com 1.10,2013-11-19 00:53:00,
2013-11-18 15:08:00,78.6,72.0,29.87,East,90,3.0,6.0,81,0.00,,,0.00,439,weatherlink.com 1.10,2013-11-19 01:08:00,
2013-11-18 15:23:00,78.5,73.0,29.87,East,90,2.0,4.0,83,0.00,,,0.00,65,weatherlink.com 1.10,2013-11-19 01:23:00,
2013-11-18 15:38:00,78.0,72.0,29.87,ESE,107,2.0,5.0,82,0.00,,,0.00,62,weatherlink.com 1.10,2013-11-19 01:38:00,
2013-11-18 15:53:00,77.9,72.0,29.87,ESE,114,3.0,5.0,81,0.00,,,0.00,65,weatherlink.com 1.10,2013-11-19 01:53:00,
2013-11-18 16:08:00,77.8,72.0,29.87,ESE,106,4.0,5.0,82,0.00,,,0.00,47,weatherlink.com 1.10,2013-11-19 02:08:00,
2013-11-18 16:24:00,77.6,72.0,29.87,ESE,106,2.0,2.0,83,0.00,,,0.00,54,weatherlink.com 1.10,2013-11-19 02:24:00,
2013-11-18 16:38:00,77.5,72.0,29.88,ESE,106,2.0,2.0,83,0.00,,,0.00,54,weatherlink.com 1.10,2013-11-19 02:38:00,
2013-11-18 16:53:00,77.3,72.0,29.88,ESE,106,0.0,4.0,83,0.00,,,0.00,53,weatherlink.com 1.10,2013-11-19 02:53:00,
2013-11-18 17:08:00,77.2,72.0,29.89,ESE,106,0.0,3.0,83,0.00,,,0.00,32,weatherlink.com 1.10,2013-11-19 03:08:00,
2013-11-18 17:23:00,76.9,72.0,29.90,ESE,106,0.0,1.0,84,0.00,,,0.00,23,weatherlink.com 1.10,2013-11-19 03:23:00,
2013-11-18 17:41:00,76.9,72.0,29.90,ESE,106,1.0,2.0,84,0.00,,,0.00,11,weatherlink.com 1.10,2013-11-19 03:41:00,
2013-11-18 17:56:00,76.4,72.0,29.91,ESE,106,0.0,1.0,85,0.00,,,0.00,0,weatherlink.com 1.10,2013-11-19 03:56:00,
2013-11-18 18:10:00,75.9,72.0,29.91,ESE,106,0.0,1.0,86,0.00,,,0.00,0,weatherlink.com 1.10,2013-11-19 04:10:00,
2013-11-18 18:24:00,75.5,71.0,29.91,ESE,106,1.0,2.0,87,0.00,,,0.00,0,weatherlink.com 1.10,2013-11-19 04:24:00,
2013-11-18 18:40:00,75.1,71.0,29.92,ESE,106,0.0,1.0,87,0.00,,,0.00,0,weatherlink.com 1.10,2013-11-19 04:40:00,
2013-11-18 18:56:00,74.9,71.0,29.93,ESE,106,0.0,1.0,88,0.00,,,0.00,0,weatherlink.com 1.10,2013-11-19 04:56:00,
2013-11-18 19:11:00,74.8,71.0,29.93,ESE,106,0.0,1.0,88,0.00,,,0.00,0,weatherlink.com 1.10,2013-11-19 05:11:00,
2013-11-18 19:26:00,74.6,71.0,29.94,ESE,106,0.0,2.0,88,0.00,,,0.00,0,weatherlink.com 1.10,2013-11-19 05:26:00,
2013-11-18 19:40:00,74.4,71.0,29.94,ESE,106,0.0,1.0,89,0.00,,,0.00,0,weatherlink.com 1.10,2013-11-19 05:40:00,
2013-11-18 19:55:00,74.3,71.0,29.95,ESE,106,0.0,1.0,89,0.00,,,0.00,0,weatherlink.com 1.10,2013-11-19 05:55:00,
2013-11-18 20:10:00,74.0,71.0,29.95,ESE,106,0.0,1.0,90,0.00,,,0.00,0,weatherlink.com 1.10,2013-11-19 06:10:00,
2013-11-18 20:25:00,73.9,71.0,29.95,ESE,107,1.0,2.0,90,0.00,,,0.00,0,weatherlink.com 1.10,2013-11-19 06:25:00,
2013-11-18 20:41:00,73.7,71.0,29.96,ESE,107,1.0,2.0,90,0.00,,,0.00,0,weatherlink.com 1.10,2013-11-19 06:41:00,
2013-11-18 20:55:00,73.6,71.0,29.96,ESE,107,1.0,2.0,90,0.00,,,0.00,0,weatherlink.com 1.10,2013-11-19 06:55:00,
2013-11-18 21:11:00,73.7,71.0,29.96,ESE,107,2.0,2.0,91,0.00,,,0.00,0,weatherlink.com 1.10,2013-11-19 07:11:00,
2013-11-18 21:26:00,73.6,71.0,29.96,ESE,107,1.0,2.0,91,0.00,,,0.00,0,weatherlink.com 1.10,2013-11-19 07:26:00,
2013-11-18 21:41:00,73.5,71.0,29.96,SSE,167,2.0,3.0,91,0.00,,,0.00,0,weatherlink.com 1.10,2013-11-19 07:41:00,
2013-11-18 21:56:00,73.4,71.0,29.96,SSE,168,2.0,3.0,91,0.00,,,0.00,0,weatherlink.com 1.10,2013-11-19 07:56:00,
2013-11-18 22:11:00,73.3,71.0,29.96,SSE,168,2.0,3.0,91,0.00,,,0.00,0,weatherlink.com 1.10,2013-11-19 08:11:00,
2013-11-18 22:26:00,73.3,71.0,29.96,South,169,2.0,2.0,91,0.00,,,0.00,0,weatherlink.com 1.10,2013-11-19 08:26:00,
2013-11-18 22:40:00,73.2,71.0,29.96,South,169,3.0,3.0,91,0.00,,,0.00,0,weatherlink.com 1.10,2013-11-19 08:40:00,
2013-11-18 22:55:00,73.2,71.0,29.95,South,169,2.0,2.0,91,0.00,,,0.00,0,weatherlink.com 1.10,2013-11-19 08:55:00,
2013-11-18 23:10:00,73.1,71.0,29.95,South,169,2.0,3.0,92,0.00,,,0.00,0,weatherlink.com 1.10,2013-11-19 09:10:00,
2013-11-18 23:25:00,72.9,70.0,29.95,South,169,1.0,2.0,91,0.00,,,0.00,0,weatherlink.com 1.10,2013-11-19 09:25:00,
2013-11-18 23:40:00,72.8,70.0,29.95,South,169,1.0,2.0,92,0.00,,,0.00,0,weatherlink.com 1.10,2013-11-19 09:40:00,
2013-11-18 23:55:00,72.8,70.0,29.95,South,169,2.0,2.0,92,0.00,,,0.00,0,weatherlink.com 1.10,2013-11-19 09:55:00,